Time;durP1;ratioP1;P1;durP2;ratioP2;P2;SDS_P1;SDS_P2;PMS_P1;PMS_P2;Temp;Humidity;BMP_temperature;BMP_pressure;BME280_temperature;BME280_humidity;BME280_pressure;Samples;Min_cycle;Max_cycle;Signal;HPM_P1;HPM_P2
2020/12/08 00:01:47;;;;;;;;;;;1.10;99.90;;;;;;5093191;28;20327;-81
2020/12/08 00:04:14;;;;;;;;;;;1.10;99.90;;;;;;5096996;28;19957;-81
2020/12/08 00:06:43;;;;;;;;;;;0.90;99.90;;;;;;5096395;28;19950;-81
2020/12/08 00:09:19;;;;;;;;;;;0.90;99.90;;;;;;5096066;28;19916;-81
2020/12/08 00:11:51;;;;;;;;;;;0.90;99.90;;;;;;5114008;28;19912;-81
2020/12/08 00:14:20;;;;;;;;;;;0.90;99.90;;;;;;5096691;28;19912;-81
2020/12/08 00:16:46;;;;;;;;;;;1.00;99.90;;;;;;5096059;28;19915;-81
2020/12/08 00:19:15;;;;;;;;;;;1.10;99.90;;;;;;5110969;28;19924;-81
2020/12/08 00:21:46;;;;;;;;;;;1.20;99.90;;;;;;5096001;28;20387;-81
2020/12/08 00:24:12;;;;;;;;;;;1.30;99.90;;;;;;5095600;28;19912;-82
2020/12/08 00:27:02;;;;;;;;;;;1.50;99.90;;;;;;5115019;28;19908;-81
2020/12/08 00:29:36;;;;;;;;;;;1.60;99.90;;;;;;5111583;28;19927;-81
2020/12/08 00:32:02;;;;;;;;;;;1.70;99.90;;;;;;5089927;28;19908;-81
2020/12/08 00:34:31;;;;;;;;;;;1.80;99.90;;;;;;5096392;28;19919;-81
2020/12/08 00:36:58;;;;;;;;;;;1.80;99.90;;;;;;5099390;28;19914;-81
2020/12/08 00:39:31;;;;;;;;;;;1.90;99.90;;;;;;5097123;28;19961;-81
2020/12/08 00:41:59;;;;;;;;;;;2.00;99.90;;;;;;5100127;28;19951;-81
2020/12/08 00:44:25;;;;;;;;;;;2.00;99.90;;;;;;5100562;28;19907;-81
2020/12/08 00:47:02;;;;;;;;;;;2.00;99.90;;;;;;5100664;28;20001;-81
2020/12/08 00:49:32;;;;;;;;;;;1.90;99.90;;;;;;5103784;28;20008;-81
2020/12/08 00:52:03;;;;;;;;;;;1.80;99.90;;;;;;5097695;28;19912;-81
2020/12/08 00:54:32;;;;;;;;;;;1.70;99.90;;;;;;5117985;28;19919;-81
2020/12/08 00:57:00;;;;;;;;;;;1.70;99.90;;;;;;5099492;28;20317;-81
2020/12/08 00:59:32;;;;;;;;;;;1.50;99.90;;;;;;5098992;28;19908;-81
2020/12/08 01:02:00;;;;;;;;;;;1.40;99.90;;;;;;5098998;28;19923;-81
2020/12/08 01:04:27;;;;;;;;;;;1.40;99.90;;;;;;5099594;28;19908;-81
2020/12/08 01:06:56;;;;;;;;;;;1.30;99.90;;;;;;5098707;28;20326;-81
2020/12/08 01:09:36;;;;;;;;;;;1.30;99.90;;;;;;5098870;28;19916;-82
2020/12/08 01:12:12;;;;;;;;;;;1.30;99.90;;;;;;5117421;28;19912;-81
2020/12/08 01:14:53;;;;;;;;;;;1.30;99.90;;;;;;5098997;28;19981;-81
2020/12/08 01:17:19;;;;;;;;;;;1.20;99.90;;;;;;5095945;28;19912;-81
2020/12/08 01:19:45;;;;;;;;;;;1.30;99.90;;;;;;5114067;28;19922;-81
2020/12/08 01:22:13;;;;;;;;;;;1.30;99.90;;;;;;5098817;28;20332;-81
2020/12/08 01:24:42;;;;;;;;;;;1.30;99.90;;;;;;5098952;28;19994;-82
2020/12/08 01:27:11;;;;;;;;;;;1.40;99.90;;;;;;5099906;28;20276;-81
2020/12/08 01:29:37;;;;;;;;;;;1.50;99.90;;;;;;5103768;28;19920;-81
2020/12/08 01:32:06;;;;;;;;;;;1.40;99.90;;;;;;5099516;28;19919;-81
2020/12/08 01:34:51;;;;;;;;;;;1.40;99.90;;;;;;5115639;28;19908;-81
2020/12/08 01:37:22;;;;;;;;;;;1.30;99.90;;;;;;5098757;28;19931;-81
2020/12/08 01:39:48;;;;;;;;;;;1.30;99.90;;;;;;5099231;28;19915;-81
2020/12/08 01:42:23;;;;;;;;;;;1.20;99.90;;;;;;5099174;28;19908;-82
2020/12/08 01:44:57;;;;;;;;;;;1.10;99.90;;;;;;5098386;28;19912;-82
2020/12/08 01:47:28;;;;;;;;;;;1.10;99.90;;;;;;5115235;28;19930;-82
2020/12/08 01:50:00;;;;;;;;;;;1.00;99.90;;;;;;5097499;28;19912;-82
2020/12/08 01:52:26;;;;;;;;;;;1.00;99.90;;;;;;5098140;28;19914;-82
2020/12/08 01:54:54;;;;;;;;;;;0.90;99.90;;;;;;5097987;28;19973;-82
2020/12/08 01:57:22;;;;;;;;;;;0.90;99.90;;;;;;5097600;28;19960;-82
2020/12/08 01:59:48;;;;;;;;;;;0.90;99.90;;;;;;5097864;28;19908;-82
2020/12/08 02:02:19;;;;;;;;;;;0.80;99.90;;;;;;5098483;28;19969;-82
2020/12/08 02:04:48;;;;;;;;;;;0.80;99.90;;;;;;5115875;28;19907;-82
2020/12/08 02:07:15;;;;;;;;;;;0.80;99.90;;;;;;5082024;28;19911;-81
2020/12/08 02:09:55;;;;;;;;;;;0.80;99.90;;;;;;5098079;28;19969;-82
2020/12/08 02:12:29;;;;;;;;;;;0.80;99.90;;;;;;5097487;28;19916;-82
2020/12/08 02:14:55;;;;;;;;;;;0.80;99.90;;;;;;5098052;28;19915;-82
2020/12/08 02:17:20;;;;;;;;;;;0.80;99.90;;;;;;5095012;28;19916;-81
2020/12/08 02:19:46;;;;;;;;;;;0.80;99.90;;;;;;5098641;28;19908;-82
2020/12/08 02:22:18;;;;;;;;;;;0.80;99.90;;;;;;5098807;28;19931;-82
2020/12/08 02:24:43;;;;;;;;;;;0.80;99.90;;;;;;5115833;28;20325;-82
2020/12/08 02:27:09;;;;;;;;;;;0.70;99.90;;;;;;5116607;28;19998;-82
2020/12/08 02:29:38;;;;;;;;;;;0.70;99.90;;;;;;5115955;28;19918;-82
2020/12/08 02:32:06;;;;;;;;;;;0.70;99.90;;;;;;5098625;28;19908;-82
2020/12/08 02:34:32;;;;;;;;;;;0.70;99.90;;;;;;5097972;28;19908;-82
2020/12/08 02:36:59;;;;;;;;;;;0.70;99.90;;;;;;5115712;28;19912;-82
2020/12/08 02:39:25;;;;;;;;;;;0.60;99.90;;;;;;5097587;28;19953;-82
2020/12/08 02:41:54;;;;;;;;;;;0.60;99.90;;;;;;5096578;28;19916;-84
2020/12/08 02:44:22;;;;;;;;;;;0.60;99.90;;;;;;5097316;28;19931;-82
2020/12/08 02:46:48;;;;;;;;;;;0.50;99.90;;;;;;5097791;28;19908;-82
2020/12/08 02:49:18;;;;;;;;;;;0.50;99.90;;;;;;5097261;28;19912;-82
2020/12/08 02:51:44;;;;;;;;;;;0.50;99.90;;;;;;5096623;28;19951;-82
2020/12/08 02:54:10;;;;;;;;;;;0.50;99.90;;;;;;5096975;28;19990;-82
2020/12/08 02:56:36;;;;;;;;;;;0.50;99.90;;;;;;5097388;28;19915;-83
2020/12/08 02:59:11;;;;;;;;;;;0.50;99.90;;;;;;5093852;28;19913;-82
2020/12/08 03:01:36;;;;;;;;;;;0.50;99.90;;;;;;5095157;28;19915;-82
2020/12/08 03:04:05;;;;;;;;;;;0.50;99.90;;;;;;5096988;28;19907;-82
2020/12/08 03:06:31;;;;;;;;;;;0.50;99.90;;;;;;5096441;28;19907;-82
2020/12/08 03:09:00;;;;;;;;;;;0.50;99.90;;;;;;5096263;28;19912;-82
2020/12/08 03:11:32;;;;;;;;;;;0.50;99.90;;;;;;5096804;28;20423;-82
2020/12/08 03:14:00;;;;;;;;;;;0.40;99.90;;;;;;5099531;28;19961;-82
2020/12/08 03:16:28;;;;;;;;;;;0.40;99.90;;;;;;5097785;28;19930;-83
2020/12/08 03:18:56;;;;;;;;;;;0.40;99.90;;;;;;5096497;28;19927;-82
2020/12/08 03:21:24;;;;;;;;;;;0.30;99.90;;;;;;5115043;28;19935;-82
2020/12/08 03:23:49;;;;;;;;;;;0.30;99.90;;;;;;5096409;28;19915;-82
2020/12/08 03:26:21;;;;;;;;;;;0.20;99.90;;;;;;5096688;28;19907;-82
2020/12/08 03:28:53;;;;;;;;;;;0.20;99.90;;;;;;5115001;28;19991;-82
2020/12/08 03:31:30;;;;;;;;;;;0.10;99.90;;;;;;5115180;28;19968;-82
2020/12/08 03:34:02;;;;;;;;;;;0.10;99.90;;;;;;5096306;28;19957;-82
2020/12/08 03:36:27;;;;;;;;;;;0.10;99.90;;;;;;5100689;28;19916;-82
2020/12/08 03:38:53;;;;;;;;;;;0.20;99.90;;;;;;5096983;28;19915;-82
2020/12/08 03:41:25;;;;;;;;;;;0.20;99.90;;;;;;5114195;28;19915;-82
2020/12/08 03:43:56;;;;;;;;;;;0.20;99.90;;;;;;5096146;28;19908;-82
2020/12/08 03:46:25;;;;;;;;;;;0.20;99.90;;;;;;5096099;28;19907;-82
2020/12/08 03:48:51;;;;;;;;;;;0.20;99.90;;;;;;5096730;28;19908;-82
2020/12/08 03:51:18;;;;;;;;;;;0.20;99.90;;;;;;5090380;28;19957;-82
2020/12/08 03:53:47;;;;;;;;;;;0.20;99.90;;;;;;5089923;28;19908;-82
2020/12/08 03:56:15;;;;;;;;;;;0.20;99.90;;;;;;5096368;28;20431;-82
2020/12/08 03:58:43;;;;;;;;;;;0.30;99.90;;;;;;5096306;28;19988;-82
2020/12/08 04:01:17;;;;;;;;;;;0.30;99.90;;;;;;5095743;28;19911;-83
2020/12/08 04:03:46;;;;;;;;;;;0.30;99.90;;;;;;5093578;28;19955;-82
2020/12/08 04:06:19;;;;;;;;;;;0.30;99.90;;;;;;5109421;28;19912;-83
2020/12/08 04:08:48;;;;;;;;;;;0.30;99.90;;;;;;5096441;28;19912;-82
2020/12/08 04:11:16;;;;;;;;;;;0.20;99.90;;;;;;5100467;28;19958;-82
2020/12/08 04:13:42;;;;;;;;;;;0.20;99.90;;;;;;5100661;28;20284;-83
2020/12/08 04:16:14;;;;;;;;;;;0.20;99.90;;;;;;5100471;28;19965;-82
2020/12/08 04:18:41;;;;;;;;;;;0.20;99.90;;;;;;5100582;28;19919;-82
2020/12/08 04:21:12;;;;;;;;;;;0.10;99.90;;;;;;5100366;28;19908;-82
2020/12/08 04:23:41;;;;;;;;;;;0.10;99.90;;;;;;5115086;28;19954;-82
2020/12/08 04:26:10;;;;;;;;;;;0.00;99.90;;;;;;5114825;28;19916;-82
2020/12/08 04:28:46;;;;;;;;;;;0.00;99.90;;;;;;5100014;28;19918;-82
2020/12/08 04:31:16;;;;;;;;;;;-0.10;99.90;;;;;;5097191;28;19928;-82
2020/12/08 04:33:58;;;;;;;;;;;-0.10;99.90;;;;;;5100242;28;19908;-82
2020/12/08 04:36:29;;;;;;;;;;;-0.10;99.90;;;;;;5099339;28;19907;-82
2020/12/08 04:39:01;;;;;;;;;;;-0.20;99.90;;;;;;5099225;28;19961;-83
2020/12/08 04:41:32;;;;;;;;;;;-0.20;99.90;;;;;;5100680;28;20371;-82
2020/12/08 04:44:02;;;;;;;;;;;-0.20;99.90;;;;;;5099656;28;20029;-82
2020/12/08 04:46:34;;;;;;;;;;;-0.20;99.90;;;;;;5099208;28;19991;-83
2020/12/08 04:49:09;;;;;;;;;;;-0.20;99.90;;;;;;5099258;28;20295;-82
2020/12/08 04:51:45;;;;;;;;;;;-0.10;99.90;;;;;;5099326;28;20372;-82
2020/12/08 04:54:30;;;;;;;;;;;0.00;99.90;;;;;;5117300;28;20395;-82
2020/12/08 04:56:59;;;;;;;;;;;0.20;99.90;;;;;;5117475;28;19908;-82
2020/12/08 04:59:28;;;;;;;;;;;0.30;99.90;;;;;;5100889;28;19998;-82
2020/12/08 05:02:08;;;;;;;;;;;0.40;99.90;;;;;;5118542;28;19915;-83
2020/12/08 05:04:55;;;;;;;;;;;0.50;99.90;;;;;;5099861;28;19908;-83
2020/12/08 05:07:31;;;;;;;;;;;0.60;99.90;;;;;;5099031;28;20272;-82
2020/12/08 05:10:01;;;;;;;;;;;0.70;99.90;;;;;;5099427;28;19919;-82
2020/12/08 05:12:34;;;;;;;;;;;0.70;99.90;;;;;;5099552;28;19952;-82
2020/12/08 05:15:04;;;;;;;;;;;0.70;99.90;;;;;;5099176;28;19953;-83
2020/12/08 05:17:40;;;;;;;;;;;0.70;99.90;;;;;;5098973;28;20014;-82
2020/12/08 05:20:16;;;;;;;;;;;0.60;99.90;;;;;;5099145;28;19908;-82
2020/12/08 05:23:00;;;;;;;;;;;0.60;99.90;;;;;;5098640;28;20279;-83
2020/12/08 05:25:33;;;;;;;;;;;0.60;99.90;;;;;;5117181;28;20387;-82
2020/12/08 05:28:02;;;;;;;;;;;0.60;99.90;;;;;;5099012;28;19911;-83
2020/12/08 05:30:31;;;;;;;;;;;0.60;99.90;;;;;;5117349;28;19919;-82
2020/12/08 05:32:57;;;;;;;;;;;0.60;99.90;;;;;;5095376;28;19912;-83
2020/12/08 05:35:27;;;;;;;;;;;0.60;99.90;;;;;;5095526;28;19912;-82
2020/12/08 05:38:06;;;;;;;;;;;0.60;99.90;;;;;;5116743;28;19908;-82
2020/12/08 05:40:35;;;;;;;;;;;0.60;99.90;;;;;;5098345;28;20382;-82
2020/12/08 05:43:03;;;;;;;;;;;0.60;99.90;;;;;;5116439;28;19908;-82
2020/12/08 05:45:40;;;;;;;;;;;0.60;99.90;;;;;;5098144;28;20368;-83
2020/12/08 05:48:07;;;;;;;;;;;0.60;99.90;;;;;;5116813;28;19908;-82
2020/12/08 05:50:41;;;;;;;;;;;0.60;99.90;;;;;;5116095;28;19983;-82
2020/12/08 05:53:10;;;;;;;;;;;0.70;99.90;;;;;;5116313;28;20357;-82
2020/12/08 05:55:38;;;;;;;;;;;0.70;99.90;;;;;;5097883;28;19908;-82
2020/12/08 05:58:23;;;;;;;;;;;0.70;99.90;;;;;;5097640;28;19907;-83
2020/12/08 06:00:59;;;;;;;;;;;0.70;99.90;;;;;;5097848;28;20361;-82
2020/12/08 06:03:28;;;;;;;;;;;0.80;99.90;;;;;;5097822;28;20005;-82
2020/12/08 06:06:07;;;;;;;;;;;0.80;99.90;;;;;;5097983;28;19931;-82
2020/12/08 06:08:45;;;;;;;;;;;0.80;99.90;;;;;;5116272;28;19953;-82
2020/12/08 06:11:15;;;;;;;;;;;0.90;99.90;;;;;;5116107;28;19920;-82
2020/12/08 06:13:50;;;;;;;;;;;0.90;99.90;;;;;;5097682;28;19908;-82
2020/12/08 06:16:22;;;;;;;;;;;1.00;99.90;;;;;;5116500;28;19915;-82
2020/12/08 06:18:48;;;;;;;;;;;1.10;99.90;;;;;;5092801;28;19920;-81
2020/12/08 06:21:20;;;;;;;;;;;1.10;99.90;;;;;;5095259;28;19965;-81
2020/12/08 06:23:57;;;;;;;;;;;1.10;99.90;;;;;;5077242;28;19915;-81
2020/12/08 06:26:37;;;;;;;;;;;1.10;99.90;;;;;;5076703;28;19908;-81
2020/12/08 06:29:08;;;;;;;;;;;1.20;99.90;;;;;;5074120;28;19961;-81
2020/12/08 06:31:41;;;;;;;;;;;1.20;99.90;;;;;;5076600;28;19915;-81
2020/12/08 06:34:08;;;;;;;;;;;1.20;99.90;;;;;;5094566;28;19908;-81
2020/12/08 06:36:36;;;;;;;;;;;1.20;99.90;;;;;;5073846;28;19957;-81
2020/12/08 06:39:07;;;;;;;;;;;1.20;99.90;;;;;;5077079;28;19909;-81
2020/12/08 06:41:48;;;;;;;;;;;1.30;99.90;;;;;;5094628;28;19915;-81
2020/12/08 06:44:21;;;;;;;;;;;1.30;99.90;;;;;;5077271;28;19915;-81
2020/12/08 06:46:59;;;;;;;;;;;1.40;99.90;;;;;;5079083;28;19912;-80
2020/12/08 06:49:30;;;;;;;;;;;1.40;99.90;;;;;;5077140;28;19923;-80
2020/12/08 06:51:59;;;;;;;;;;;1.40;99.90;;;;;;5095329;28;19908;-80
2020/12/08 06:54:30;;;;;;;;;;;1.50;99.90;;;;;;5095128;28;19912;-81
2020/12/08 06:57:00;;;;;;;;;;;1.50;99.90;;;;;;5074518;28;19915;-81
2020/12/08 06:59:41;;;;;;;;;;;1.50;99.90;;;;;;5094797;28;19908;-81
2020/12/08 07:02:17;;;;;;;;;;;1.50;99.90;;;;;;5094834;28;19908;-81
2020/12/08 07:04:43;;;;;;;;;;;1.60;99.90;;;;;;5073759;28;19938;-81
2020/12/08 07:07:15;;;;;;;;;;;1.60;99.90;;;;;;5095185;28;19916;-81
2020/12/08 07:09:48;;;;;;;;;;;1.60;99.90;;;;;;5094270;28;20357;-81
2020/12/08 07:12:16;;;;;;;;;;;1.60;99.90;;;;;;5077045;28;19915;-81
2020/12/08 07:15:01;;;;;;;;;;;1.70;99.90;;;;;;5074537;28;22160;-81
2020/12/08 07:17:29;;;;;;;;;;;1.70;99.90;;;;;;5094626;28;20281;-81
2020/12/08 07:20:04;;;;;;;;;;;1.80;99.90;;;;;;5076514;28;19959;-81
2020/12/08 07:22:41;;;;;;;;;;;1.80;99.90;;;;;;5076949;28;19912;-81
2020/12/08 07:25:13;;;;;;;;;;;1.80;99.90;;;;;;5076447;28;19907;-81
2020/12/08 07:27:46;;;;;;;;;;;1.80;99.90;;;;;;5094395;28;19914;-80
2020/12/08 07:30:22;;;;;;;;;;;1.80;99.90;;;;;;5075973;28;19919;-81
2020/12/08 07:32:53;;;;;;;;;;;1.80;99.90;;;;;;5092473;28;19920;-81
2020/12/08 07:35:29;;;;;;;;;;;1.90;99.90;;;;;;5075987;28;19912;-81
2020/12/08 07:38:01;;;;;;;;;;;1.80;99.90;;;;;;5076236;28;19955;-81
2020/12/08 07:40:42;;;;;;;;;;;1.90;99.90;;;;;;5076388;28;19908;-81
2020/12/08 07:43:11;;;;;;;;;;;1.90;99.90;;;;;;5093835;28;19912;-80
2020/12/08 07:45:45;;;;;;;;;;;1.90;99.90;;;;;;5093462;28;20401;-81
2020/12/08 07:48:16;;;;;;;;;;;2.00;99.90;;;;;;5076185;28;19912;-81
2020/12/08 07:50:45;;;;;;;;;;;2.00;99.90;;;;;;5090789;28;19920;-80
2020/12/08 07:53:15;;;;;;;;;;;2.00;99.90;;;;;;5075675;28;20284;-81
2020/12/08 07:55:47;;;;;;;;;;;2.00;99.90;;;;;;5093890;28;19908;-81
2020/12/08 07:58:13;;;;;;;;;;;2.10;99.90;;;;;;5076834;28;19908;-80
2020/12/08 08:00:38;;;;;;;;;;;2.10;99.90;;;;;;5076360;28;19969;-81
2020/12/08 08:03:04;;;;;;;;;;;2.10;99.90;;;;;;5075823;28;19915;-80
2020/12/08 08:05:34;;;;;;;;;;;2.10;99.90;;;;;;5093719;28;19912;-81
2020/12/08 08:08:05;;;;;;;;;;;2.10;99.90;;;;;;5093498;28;20374;-81
2020/12/08 08:10:33;;;;;;;;;;;2.10;99.90;;;;;;5075490;28;19920;-80
2020/12/08 08:13:01;;;;;;;;;;;2.20;99.90;;;;;;5075571;28;20376;-80
2020/12/08 08:15:27;;;;;;;;;;;2.20;99.90;;;;;;5093778;28;19991;-81
2020/12/08 08:17:56;;;;;;;;;;;2.20;99.90;;;;;;5093519;28;19955;-81
2020/12/08 08:20:26;;;;;;;;;;;2.20;99.90;;;;;;5076077;28;19912;-80
2020/12/08 08:22:57;;;;;;;;;;;2.30;99.90;;;;;;5093554;28;19912;-80
2020/12/08 08:25:25;;;;;;;;;;;2.30;99.90;;;;;;5093482;28;19916;-80
2020/12/08 08:28:03;;;;;;;;;;;2.30;99.90;;;;;;5075128;28;20014;-81
2020/12/08 08:30:37;;;;;;;;;;;2.30;99.90;;;;;;5052166;28;19921;-80
2020/12/08 08:33:08;;;;;;;;;;;2.30;99.90;;;;;;5036853;28;19909;-80
2020/12/08 08:35:36;;;;;;;;;;;2.30;99.90;;;;;;5034798;28;20362;-80
2020/12/08 08:38:05;;;;;;;;;;;2.40;99.90;;;;;;5051054;28;20298;-81
2020/12/08 08:40:33;;;;;;;;;;;2.40;99.90;;;;;;5051345;28;19913;-80
2020/12/08 08:43:35;;;;;;;;;;;2.40;99.90;;;;;;5050901;28;19908;-80
2020/12/08 08:46:09;;;;;;;;;;;2.50;99.90;;;;;;5034315;28;20381;-80
2020/12/08 08:48:37;;;;;;;;;;;2.50;99.90;;;;;;5034350;28;20410;-81
2020/12/08 08:51:06;;;;;;;;;;;2.50;99.90;;;;;;5048083;28;20014;-81
2020/12/08 08:53:34;;;;;;;;;;;2.50;99.90;;;;;;5034294;28;19936;-80
2020/12/08 08:56:02;;;;;;;;;;;2.50;99.90;;;;;;5052529;28;19909;-81
2020/12/08 08:58:30;;;;;;;;;;;2.60;99.90;;;;;;5038016;28;19916;-80
2020/12/08 09:01:01;;;;;;;;;;;2.60;99.90;;;;;;5049485;28;20407;-80
2020/12/08 09:03:35;;;;;;;;;;;2.60;99.90;;;;;;5078364;28;20315;-81
2020/12/08 09:06:06;;;;;;;;;;;2.70;99.90;;;;;;5078712;28;20352;-80
2020/12/08 09:08:37;;;;;;;;;;;2.70;99.90;;;;;;5078378;28;19909;-80
2020/12/08 09:11:03;;;;;;;;;;;2.80;99.90;;;;;;5078740;28;19916;-80
2020/12/08 09:13:32;;;;;;;;;;;2.80;99.90;;;;;;5078197;28;20330;-80
2020/12/08 09:16:00;;;;;;;;;;;2.80;99.90;;;;;;5077974;28;19911;-80
2020/12/08 09:18:35;;;;;;;;;;;2.80;99.90;;;;;;5075173;28;19981;-80
2020/12/08 09:21:06;;;;;;;;;;;2.90;99.90;;;;;;5074937;28;19909;-80
2020/12/08 09:23:38;;;;;;;;;;;2.90;99.90;;;;;;5075359;28;20308;-80
2020/12/08 09:26:20;;;;;;;;;;;2.90;99.90;;;;;;5075656;28;19973;-81
2020/12/08 09:29:02;;;;;;;;;;;3.00;99.90;;;;;;5074959;28;20429;-81
2020/12/08 09:31:31;;;;;;;;;;;3.00;99.90;;;;;;5075148;28;20348;-80
2020/12/08 09:34:02;;;;;;;;;;;3.10;99.90;;;;;;5076721;28;19913;-80
2020/12/08 09:36:30;;;;;;;;;;;3.10;99.90;;;;;;5075194;28;19909;-80
2020/12/08 09:39:14;;;;;;;;;;;3.10;99.90;;;;;;5075711;28;19930;-80
2020/12/08 09:41:45;;;;;;;;;;;3.20;99.90;;;;;;5075797;28;19908;-80
2020/12/08 09:44:15;;;;;;;;;;;3.20;99.90;;;;;;5074689;28;19909;-80
2020/12/08 09:46:52;;;;;;;;;;;3.30;99.90;;;;;;5071624;28;20323;-80
2020/12/08 09:49:20;;;;;;;;;;;3.30;99.90;;;;;;5073985;28;19919;-79
2020/12/08 09:51:56;;;;;;;;;;;3.40;99.90;;;;;;5074631;28;20341;-80
2020/12/08 09:54:30;;;;;;;;;;;3.40;99.90;;;;;;5075463;28;19908;-80
2020/12/08 09:56:56;;;;;;;;;;;3.40;99.90;;;;;;5075675;28;20367;-80
2020/12/08 09:59:21;;;;;;;;;;;3.50;99.90;;;;;;5074076;28;19915;-80
2020/12/08 10:01:47;;;;;;;;;;;3.60;99.90;;;;;;5073893;28;19909;-79
2020/12/08 10:04:18;;;;;;;;;;;3.60;99.90;;;;;;5074055;28;19970;-80
2020/12/08 10:06:49;;;;;;;;;;;3.70;99.90;;;;;;5074000;28;19908;-80
2020/12/08 10:09:16;;;;;;;;;;;3.70;99.90;;;;;;5073871;28;19939;-80
2020/12/08 10:11:43;;;;;;;;;;;3.80;99.90;;;;;;5075239;28;19913;-80
2020/12/08 10:14:12;;;;;;;;;;;3.80;99.90;;;;;;5073845;28;19912;-80
2020/12/08 10:17:03;;;;;;;;;;;3.90;99.90;;;;;;5079824;28;19923;-80
2020/12/08 10:19:34;;;;;;;;;;;3.90;99.90;;;;;;5074210;28;19924;-80
2020/12/08 10:22:00;;;;;;;;;;;3.90;99.90;;;;;;5033245;28;20382;-79
2020/12/08 10:24:31;;;;;;;;;;;3.90;99.90;;;;;;5033077;28;19931;-80
2020/12/08 10:27:00;;;;;;;;;;;3.90;99.90;;;;;;5016032;28;19917;-80
2020/12/08 10:29:31;;;;;;;;;;;4.00;99.90;;;;;;5013643;28;19921;-80
2020/12/08 10:31:56;;;;;;;;;;;4.00;99.90;;;;;;5032657;28;20416;-81
2020/12/08 10:34:34;;;;;;;;;;;4.00;99.90;;;;;;5032713;28;20000;-81
2020/12/08 10:37:02;;;;;;;;;;;4.10;99.90;;;;;;5032708;28;19919;-81
2020/12/08 10:39:37;;;;;;;;;;;4.30;99.90;;;;;;5015680;28;19909;-80
2020/12/08 10:42:04;;;;;;;;;;;4.40;99.90;;;;;;5016086;28;19909;-80
2020/12/08 10:44:30;;;;;;;;;;;4.60;99.90;;;;;;5030049;28;19944;-80
2020/12/08 10:46:56;;;;;;;;;;;4.80;99.90;;;;;;5061481;28;19908;-80
2020/12/08 10:49:27;;;;;;;;;;;5.00;99.90;;;;;;5073069;28;19916;-80
2020/12/08 10:52:03;;;;;;;;;;;5.00;99.90;;;;;;5074108;28;20280;-80
2020/12/08 10:54:32;;;;;;;;;;;5.00;99.90;;;;;;5074515;28;19956;-79
2020/12/08 10:57:01;;;;;;;;;;;5.10;99.90;;;;;;5070780;28;19967;-80
2020/12/08 10:59:42;;;;;;;;;;;5.10;99.90;;;;;;5070305;28;20284;-80
2020/12/08 11:02:11;;;;;;;;;;;5.10;99.90;;;;;;5072991;28;19908;-79
2020/12/08 11:04:37;;;;;;;;;;;5.20;99.90;;;;;;5074674;28;19909;-79
2020/12/08 11:07:11;;;;;;;;;;;5.20;99.90;;;;;;5069831;28;20265;-79
2020/12/08 11:09:43;;;;;;;;;;;5.30;99.90;;;;;;5072760;28;20003;-80
2020/12/08 11:12:14;;;;;;;;;;;5.30;99.90;;;;;;5073029;28;19923;-80
2020/12/08 11:14:43;;;;;;;;;;;5.30;99.90;;;;;;5072683;28;19962;-81
2020/12/08 11:17:16;;;;;;;;;;;5.40;99.90;;;;;;5072509;28;19908;-80
2020/12/08 11:19:42;;;;;;;;;;;5.40;99.90;;;;;;5073084;28;19924;-80
2020/12/08 11:22:07;;;;;;;;;;;5.60;99.90;;;;;;5072440;28;19915;-80
2020/12/08 11:24:41;;;;;;;;;;;5.90;99.90;;;;;;5072621;28;19916;-79
2020/12/08 11:27:13;;;;;;;;;;;6.00;99.90;;;;;;5072617;28;19915;-79
2020/12/08 11:29:41;;;;;;;;;;;6.30;99.90;;;;;;5073882;28;19962;-80
2020/12/08 11:32:11;;;;;;;;;;;6.60;99.90;;;;;;5073037;28;19909;-81
2020/12/08 11:34:37;;;;;;;;;;;6.70;99.90;;;;;;5072706;28;19908;-80
2020/12/08 11:37:05;;;;;;;;;;;6.60;99.90;;;;;;5072454;28;20310;-80
2020/12/08 11:39:33;;;;;;;;;;;6.60;99.90;;;;;;5072298;28;19912;-82
2020/12/08 11:42:06;;;;;;;;;;;6.80;99.90;;;;;;5072422;28;19908;-80
2020/12/08 11:44:31;;;;;;;;;;;7.00;99.90;;;;;;5073552;28;19921;-80
2020/12/08 11:47:03;;;;;;;;;;;7.00;99.90;;;;;;5072568;28;19958;-80
2020/12/08 11:49:39;;;;;;;;;;;7.00;99.90;;;;;;5072707;28;20177;-80
2020/12/08 11:52:07;;;;;;;;;;;7.00;99.90;;;;;;5072617;28;19912;-80
2020/12/08 11:54:37;;;;;;;;;;;7.40;99.90;;;;;;5072111;28;20284;-80
2020/12/08 11:57:03;;;;;;;;;;;7.80;99.90;;;;;;5069438;28;20003;-80
2020/12/08 11:59:42;;;;;;;;;;;8.20;99.90;;;;;;5072435;28;19913;-80
2020/12/08 12:02:20;;;;;;;;;;;8.40;99.90;;;;;;5072693;28;19912;-81
2020/12/08 12:04:56;;;;;;;;;;;8.40;99.90;;;;;;5073066;28;19908;-80
2020/12/08 12:07:23;;;;;;;;;;;8.20;99.90;;;;;;5072864;28;20420;-80
2020/12/08 12:09:49;;;;;;;;;;;8.00;99.90;;;;;;5072202;28;20010;-81
2020/12/08 12:12:17;;;;;;;;;;;8.00;99.90;;;;;;5072377;28;20377;-80
2020/12/08 12:14:53;;;;;;;;;;;7.90;99.90;;;;;;5072124;28;20281;-80
2020/12/08 12:17:24;;;;;;;;;;;7.80;99.90;;;;;;5071707;28;19920;-80
2020/12/08 12:19:52;;;;;;;;;;;7.80;99.90;;;;;;5072005;28;19931;-80
2020/12/08 12:22:20;;;;;;;;;;;7.60;99.90;;;;;;5073210;28;19908;-80
2020/12/08 12:24:59;;;;;;;;;;;7.40;99.90;;;;;;5073192;28;19909;-80
2020/12/08 12:27:28;;;;;;;;;;;7.30;99.90;;;;;;5072272;28;19915;-81
2020/12/08 12:29:56;;;;;;;;;;;7.30;99.90;;;;;;5071485;28;19912;-82
2020/12/08 12:32:24;;;;;;;;;;;7.30;99.90;;;;;;5075922;28;20377;-80
2020/12/08 12:34:52;;;;;;;;;;;7.60;99.90;;;;;;5075893;28;19930;-81
2020/12/08 12:37:20;;;;;;;;;;;8.10;99.90;;;;;;5077612;28;19998;-81
2020/12/08 12:39:48;;;;;;;;;;;8.70;99.90;;;;;;5076763;28;20003;-80
2020/12/08 12:42:20;;;;;;;;;;;9.10;99.90;;;;;;5073171;28;19913;-81
2020/12/08 12:44:48;;;;;;;;;;;9.20;99.90;;;;;;5073126;28;20011;-80
2020/12/08 12:47:19;;;;;;;;;;;9.00;99.90;;;;;;5077335;28;19913;-82
2020/12/08 12:49:53;;;;;;;;;;;9.30;99.90;;;;;;5075663;28;19913;-82
2020/12/08 12:52:29;;;;;;;;;;;9.60;99.90;;;;;;5077081;28;19991;-82
2020/12/08 12:54:54;;;;;;;;;;;9.60;99.90;;;;;;5076486;28;19912;-80
2020/12/08 12:57:20;;;;;;;;;;;9.40;99.90;;;;;;5077667;28;20354;-80
2020/12/08 12:59:51;;;;;;;;;;;9.00;99.90;;;;;;5076646;28;19909;-80
2020/12/08 13:02:20;;;;;;;;;;;8.60;99.90;;;;;;5077769;28;19988;-81
2020/12/08 13:04:46;;;;;;;;;;;8.30;99.90;;;;;;5076503;28;19912;-81
2020/12/08 13:07:21;;;;;;;;;;;7.90;99.90;;;;;;5077234;28;20293;-81
2020/12/08 13:09:47;;;;;;;;;;;7.50;99.90;;;;;;5076559;28;19917;-81
2020/12/08 13:12:18;;;;;;;;;;;7.20;99.90;;;;;;5076474;28;20280;-81
2020/12/08 13:14:49;;;;;;;;;;;7.00;99.90;;;;;;5075221;28;19908;-80
2020/12/08 13:17:21;;;;;;;;;;;6.80;99.90;;;;;;5034914;28;19920;-81
2020/12/08 13:19:49;;;;;;;;;;;6.60;99.90;;;;;;5034354;28;20011;-80
2020/12/08 13:22:18;;;;;;;;;;;6.30;99.90;;;;;;5035444;28;19909;-81
2020/12/08 13:25:13;;;;;;;;;;;6.10;99.90;;;;;;5033547;28;20019;-80
2020/12/08 13:27:42;;;;;;;;;;;6.00;99.90;;;;;;5015209;28;19920;-80
2020/12/08 13:30:12;;;;;;;;;;;5.80;99.90;;;;;;5015262;28;19917;-81
2020/12/08 13:32:48;;;;;;;;;;;5.80;99.90;;;;;;5034461;28;20063;-82
2020/12/08 13:35:16;;;;;;;;;;;5.70;99.90;;;;;;5035132;28;19970;-81
2020/12/08 13:37:47;;;;;;;;;;;5.60;99.90;;;;;;5018361;28;19944;-80
2020/12/08 13:40:19;;;;;;;;;;;5.50;99.90;;;;;;5034926;28;19909;-81
2020/12/08 13:42:50;;;;;;;;;;;5.40;99.90;;;;;;5068128;28;19909;-81
2020/12/08 13:45:23;;;;;;;;;;;5.30;99.90;;;;;;5075151;28;20353;-81
2020/12/08 13:47:52;;;;;;;;;;;5.30;99.90;;;;;;5077197;28;19913;-81
2020/12/08 13:50:28;;;;;;;;;;;5.30;99.90;;;;;;5076290;28;19917;-82
2020/12/08 13:52:56;;;;;;;;;;;5.30;99.90;;;;;;5072414;28;19920;-80
2020/12/08 13:55:34;;;;;;;;;;;5.30;99.90;;;;;;5075150;28;19908;-80
2020/12/08 13:58:02;;;;;;;;;;;5.30;99.90;;;;;;5075680;28;19912;-81
2020/12/08 14:00:34;;;;;;;;;;;5.30;99.90;;;;;;5076562;28;19908;-82
2020/12/08 14:03:08;;;;;;;;;;;5.20;99.90;;;;;;5075221;28;19960;-81
2020/12/08 14:05:53;;;;;;;;;;;5.20;99.90;;;;;;5075975;28;19966;-81
2020/12/08 14:08:18;;;;;;;;;;;5.20;99.90;;;;;;5075652;28;20345;-81
2020/12/08 14:10:48;;;;;;;;;;;5.10;99.90;;;;;;5076348;28;20014;-80
2020/12/08 14:13:17;;;;;;;;;;;5.00;99.90;;;;;;5075045;28;19908;-82
2020/12/08 14:15:51;;;;;;;;;;;5.10;99.90;;;;;;5074866;28;19909;-81
2020/12/08 14:18:17;;;;;;;;;;;5.00;99.90;;;;;;5074283;28;19966;-82
2020/12/08 14:20:49;;;;;;;;;;;5.00;99.90;;;;;;5071501;28;19966;-81
2020/12/08 14:23:18;;;;;;;;;;;4.90;99.90;;;;;;5076435;28;19908;-82
2020/12/08 14:25:54;;;;;;;;;;;4.90;99.90;;;;;;5075525;28;19916;-80
2020/12/08 14:28:27;;;;;;;;;;;4.90;99.90;;;;;;5072055;28;20007;-81
2020/12/08 14:30:59;;;;;;;;;;;4.80;99.90;;;;;;5075343;28;19913;-80
2020/12/08 14:33:29;;;;;;;;;;;4.80;99.90;;;;;;5075284;28;19936;-81
2020/12/08 14:36:05;;;;;;;;;;;4.80;99.90;;;;;;5074237;28;19931;-80
2020/12/08 14:38:38;;;;;;;;;;;4.80;99.90;;;;;;5074128;28;20011;-81
2020/12/08 14:41:06;;;;;;;;;;;4.80;99.90;;;;;;5074476;28;19913;-80
2020/12/08 14:43:35;;;;;;;;;;;4.80;99.90;;;;;;5075028;28;20391;-81
2020/12/08 14:46:04;;;;;;;;;;;4.70;99.90;;;;;;5070693;28;19966;-80
2020/12/08 14:48:33;;;;;;;;;;;4.70;99.90;;;;;;5074071;28;20272;-80
2020/12/08 14:51:01;;;;;;;;;;;4.70;99.90;;;;;;5075505;28;19966;-80